createdAt,value
2023-01-11T00:00:32.264Z,2.60
2023-01-11T00:03:02.175Z,2.80
2023-01-11T00:05:29.414Z,2.53
2023-01-11T00:07:56.787Z,1.90
2023-01-11T00:10:24.358Z,1.60
2023-01-11T00:12:51.586Z,1.70
2023-01-11T00:15:18.963Z,1.87
2023-01-11T00:17:46.251Z,1.80
2023-01-11T00:20:13.686Z,2.00
2023-01-11T00:22:41.016Z,1.47
2023-01-11T00:25:08.768Z,1.43
2023-01-11T00:27:36.022Z,1.33
2023-01-11T00:30:03.619Z,1.60
2023-01-11T00:32:30.953Z,1.40
2023-01-11T00:34:58.177Z,1.57
2023-01-11T00:37:25.470Z,1.50
2023-01-11T00:39:52.780Z,1.40
2023-01-11T00:42:38.763Z,1.30
2023-01-11T00:45:25.103Z,1.40
2023-01-11T00:47:58.162Z,1.40
2023-01-11T00:50:26.889Z,1.20
2023-01-11T00:52:54.237Z,1.20
2023-01-11T00:55:21.567Z,1.23
2023-01-11T00:57:49.209Z,1.50
2023-01-11T01:00:17.402Z,1.10
2023-01-11T01:02:44.931Z,1.40
2023-01-11T01:05:12.555Z,1.30
2023-01-11T01:07:39.868Z,1.13
2023-01-11T01:10:08.449Z,1.20
2023-01-11T01:12:54.715Z,1.40
2023-01-11T01:15:22.089Z,1.40
2023-01-11T01:17:52.219Z,1.30
2023-01-11T01:20:20.853Z,1.30
2023-01-11T01:22:48.678Z,1.30
2023-01-11T01:25:16.408Z,1.40
2023-01-11T01:27:43.697Z,1.20
2023-01-11T01:30:11.291Z,1.30
2023-01-11T01:32:38.523Z,1.07
2023-01-11T01:35:06.173Z,1.23
2023-01-11T01:37:33.626Z,1.40
2023-01-11T01:40:00.825Z,1.20
2023-01-11T01:42:28.233Z,1.30
2023-01-11T01:45:20.029Z,1.50
2023-01-11T01:47:59.167Z,1.30
2023-01-11T01:50:32.984Z,1.37
2023-01-11T01:53:04.604Z,1.30
2023-01-11T01:55:39.265Z,1.13
2023-01-11T01:58:12.459Z,1.47
2023-01-11T02:00:42.703Z,1.20
2023-01-11T02:03:13.890Z,1.13
2023-01-11T02:05:41.154Z,1.30
2023-01-11T02:08:24.112Z,1.13
2023-01-11T02:10:53.237Z,1.20
2023-01-11T02:13:21.379Z,1.20
2023-01-11T02:16:07.402Z,1.20
2023-01-11T02:18:37.044Z,0.83
2023-01-11T02:21:21.343Z,1.20
2023-01-11T02:23:59.578Z,1.20
2023-01-11T02:26:35.841Z,1.10
2023-01-11T02:29:03.017Z,1.10
2023-01-11T02:31:53.077Z,0.90
2023-01-11T02:34:47.532Z,1.00
2023-01-11T02:37:32.668Z,1.13
2023-01-11T02:40:02.435Z,1.07
2023-01-11T02:43:18.703Z,1.00
2023-01-11T02:46:13.243Z,0.97
2023-01-11T02:48:59.571Z,0.87
2023-01-11T02:51:38.495Z,1.10
2023-01-11T02:54:09.911Z,1.00
2023-01-11T02:56:46.239Z,0.80
2023-01-11T02:59:21.520Z,0.90
2023-01-11T03:01:52.998Z,1.00
2023-01-11T03:04:30.584Z,1.10
2023-01-11T03:07:09.687Z,1.00
2023-01-11T03:10:07.268Z,0.93
2023-01-11T03:12:52.732Z,1.13
2023-01-11T03:15:32.008Z,0.90
2023-01-11T03:18:18.088Z,1.10
2023-01-11T03:21:04.754Z,0.90
2023-01-11T03:23:53.539Z,0.90
2023-01-11T03:26:33.365Z,0.90
2023-01-11T03:29:17.314Z,0.90
2023-01-11T03:31:57.116Z,1.10
2023-01-11T03:34:53.464Z,0.97
2023-01-11T03:37:35.586Z,1.10
2023-01-11T03:40:16.841Z,1.10
2023-01-11T03:43:06.897Z,1.20
2023-01-11T03:45:51.117Z,1.00
2023-01-11T03:48:23.583Z,1.20
2023-01-11T03:50:52.942Z,1.10
2023-01-11T03:53:23.624Z,1.07
2023-01-11T03:55:55.471Z,1.00
2023-01-11T03:58:24.856Z,1.00
2023-01-11T04:00:53.299Z,0.83
2023-01-11T04:03:20.749Z,0.93
2023-01-11T04:05:53.788Z,1.20
2023-01-11T04:08:21.001Z,1.00
2023-01-11T04:10:48.199Z,1.00
2023-01-11T04:13:15.433Z,1.47
2023-01-11T04:15:42.792Z,1.03
2023-01-11T04:18:10.139Z,1.17
2023-01-11T04:20:40.370Z,1.20
2023-01-11T04:23:09.598Z,0.93
2023-01-11T04:25:36.820Z,1.00
2023-01-11T04:28:04.170Z,1.00
2023-01-11T04:30:31.885Z,1.13
2023-01-11T04:32:59.515Z,1.40
2023-01-11T04:35:27.589Z,1.40
2023-01-11T04:37:57.915Z,1.60
2023-01-11T04:40:25.353Z,1.50
2023-01-11T04:42:52.616Z,1.40
2023-01-11T04:45:20.008Z,1.10
2023-01-11T04:47:53.141Z,1.27
2023-01-11T04:50:20.465Z,1.00
2023-01-11T04:52:47.660Z,1.07
2023-01-11T04:55:14.890Z,1.00
2023-01-11T04:57:44.457Z,1.10
2023-01-11T05:00:13.056Z,1.10
2023-01-11T05:02:40.595Z,0.97
2023-01-11T05:05:11.860Z,1.10
2023-01-11T05:07:39.276Z,0.90
2023-01-11T05:10:07.673Z,0.93
2023-01-11T05:12:34.869Z,1.00
2023-01-11T05:15:02.110Z,1.00
2023-01-11T05:17:29.442Z,1.60
2023-01-11T05:19:56.863Z,1.10
2023-01-11T05:22:24.136Z,1.10
2023-01-11T05:24:51.441Z,0.90
2023-01-11T05:27:18.657Z,1.10
2023-01-11T05:29:45.899Z,1.17
2023-01-11T05:32:14.094Z,0.97
2023-01-11T05:34:41.310Z,0.80
2023-01-11T05:37:09.875Z,0.80
2023-01-11T05:39:37.043Z,1.20
2023-01-11T05:42:04.474Z,1.10
2023-01-11T05:44:50.216Z,1.10
2023-01-11T05:47:17.444Z,1.20
2023-01-11T05:49:44.644Z,1.00
2023-01-11T05:52:12.191Z,0.87
2023-01-11T05:54:39.425Z,0.80
2023-01-11T05:57:10.639Z,1.33
2023-01-11T05:59:37.950Z,0.93
2023-01-11T06:02:05.262Z,0.93
2023-01-11T06:04:32.477Z,1.00
2023-01-11T06:06:59.723Z,0.80
2023-01-11T06:09:28.148Z,1.10
2023-01-11T06:11:55.406Z,0.93
2023-01-11T06:14:22.614Z,0.87
2023-01-11T06:16:49.899Z,1.30
2023-01-11T06:19:17.344Z,1.10
2023-01-11T06:21:44.557Z,0.93
2023-01-11T06:24:11.780Z,0.90
2023-01-11T06:26:39.009Z,1.00
2023-01-11T06:29:06.242Z,1.00
2023-01-11T06:31:33.453Z,1.00
2023-01-11T06:34:00.676Z,1.10
2023-01-11T06:36:29.771Z,1.00
2023-01-11T06:38:57.163Z,1.10
2023-01-11T06:41:24.381Z,1.00
2023-01-11T06:43:51.629Z,1.00
2023-01-11T06:46:19.216Z,1.10
2023-01-11T06:48:47.290Z,1.00
2023-01-11T06:51:15.806Z,1.10
2023-01-11T06:53:43.882Z,1.30
2023-01-11T06:56:14.308Z,1.30
2023-01-11T06:58:41.722Z,1.00
2023-01-11T07:01:09.271Z,1.13
2023-01-11T07:03:36.578Z,1.40
2023-01-11T07:06:04.400Z,1.30
2023-01-11T07:08:31.774Z,1.10
2023-01-11T07:10:59.100Z,1.10
2023-01-11T07:13:26.342Z,1.10
2023-01-11T07:15:57.474Z,1.10
2023-01-11T07:18:24.802Z,1.00
2023-01-11T07:20:52.145Z,1.10
2023-01-11T07:23:19.589Z,1.10
2023-01-11T07:25:49.633Z,1.17
2023-01-11T07:28:17.155Z,1.30
2023-01-11T07:30:57.372Z,1.10
2023-01-11T07:33:25.917Z,1.60
2023-01-11T07:35:53.507Z,3.40
2023-01-11T07:38:20.902Z,3.00
2023-01-11T07:40:48.118Z,2.27
2023-01-11T07:43:15.697Z,1.80
2023-01-11T07:45:46.965Z,1.43
2023-01-11T07:48:15.555Z,1.70
2023-01-11T07:50:45.158Z,1.40
2023-01-11T07:53:13.591Z,1.30
2023-01-11T07:55:41.649Z,1.47
2023-01-11T07:58:12.288Z,1.20
2023-01-11T08:00:41.037Z,1.30
2023-01-11T08:03:08.537Z,1.37
2023-01-11T08:05:35.946Z,1.30
2023-01-11T08:08:03.977Z,1.50
2023-01-11T08:10:31.574Z,1.67
2023-01-11T08:13:17.266Z,1.73
2023-01-11T08:15:44.588Z,2.07
2023-01-11T08:18:12.589Z,1.93
2023-01-11T08:20:40.393Z,1.47
2023-01-11T08:23:09.648Z,1.30
2023-01-11T08:25:37.411Z,1.13
2023-01-11T08:28:06.621Z,1.20
2023-01-11T08:30:34.809Z,1.10
2023-01-11T08:33:02.855Z,1.27
2023-01-11T08:35:30.873Z,1.20
2023-01-11T08:37:58.352Z,1.50
2023-01-11T08:40:25.757Z,1.30
2023-01-11T08:42:56.960Z,1.33
2023-01-11T08:45:25.169Z,1.33
2023-01-11T08:47:53.147Z,1.50
2023-01-11T08:50:22.319Z,1.30
2023-01-11T08:52:50.997Z,1.27
2023-01-11T08:55:19.761Z,1.37
2023-01-11T08:57:47.278Z,1.17
2023-01-11T09:00:15.236Z,1.20
2023-01-11T09:02:42.807Z,1.40
2023-01-11T09:05:10.360Z,1.40
2023-01-11T09:07:37.543Z,1.20
2023-01-11T09:10:05.348Z,1.07
2023-01-11T09:12:32.782Z,1.33
2023-01-11T09:15:00.359Z,1.43
2023-01-11T09:17:27.769Z,1.20
2023-01-11T09:19:55.027Z,1.17
2023-01-11T09:22:22.238Z,1.20
2023-01-11T09:24:49.453Z,2.67
2023-01-11T09:27:17.172Z,1.13
2023-01-11T09:29:44.567Z,1.20
2023-01-11T09:32:11.831Z,1.10
2023-01-11T09:34:39.231Z,1.30
2023-01-11T09:37:07.093Z,1.30
2023-01-11T09:39:35.179Z,1.93
2023-01-11T09:42:21.925Z,1.20
2023-01-11T09:44:50.921Z,3.27
2023-01-11T09:47:33.750Z,1.47
2023-01-11T09:50:06.789Z,1.17
2023-01-11T09:52:40.903Z,1.80
2023-01-11T09:55:20.036Z,1.50
2023-01-11T09:57:54.656Z,2.30
2023-01-11T10:00:33.079Z,1.50
2023-01-11T10:03:11.049Z,1.30
2023-01-11T10:05:55.954Z,1.40
2023-01-11T10:18:26.286Z,1.40
2023-01-11T10:18:31.768Z,1.40
2023-01-11T10:20:51.309Z,1.20
2023-01-11T10:23:37.744Z,1.13
2023-01-11T10:26:13.025Z,1.53
2023-01-11T10:29:08.506Z,1.20
2023-01-11T10:31:36.897Z,1.30
2023-01-11T10:34:36.221Z,1.37
2023-01-11T10:37:22.724Z,1.83
2023-01-11T10:40:26.876Z,1.20
2023-01-11T10:43:16.652Z,1.30
2023-01-11T10:45:53.249Z,1.43
2023-01-11T10:48:34.578Z,1.50
2023-01-11T10:51:29.806Z,1.63
2023-01-11T10:54:22.071Z,1.30
2023-01-11T10:57:08.159Z,1.43
2023-01-11T10:59:43.532Z,1.20
2023-01-11T11:02:44.397Z,1.13
2023-01-11T11:05:36.022Z,1.50
2023-01-11T11:08:26.985Z,1.50
2023-01-11T11:11:05.902Z,1.40
2023-01-11T11:13:52.098Z,1.40
2023-01-11T11:16:22.359Z,2.07
2023-01-11T11:18:52.181Z,1.50
2023-01-11T11:21:35.831Z,1.40
2023-01-11T11:24:17.414Z,1.40
2023-01-11T11:26:49.226Z,1.43
2023-01-11T11:29:22.934Z,1.10
2023-01-11T11:31:51.111Z,1.30
2023-01-11T11:34:20.701Z,1.30
2023-01-11T11:36:52.416Z,1.20
2023-01-11T11:39:31.087Z,1.10
2023-01-11T11:42:07.241Z,1.10
2023-01-11T11:44:35.447Z,1.13
2023-01-11T11:47:05.502Z,1.27
2023-01-11T11:49:38.381Z,2.27
2023-01-11T11:52:07.310Z,1.47
2023-01-11T11:55:02.804Z,1.30
2023-01-11T11:57:38.685Z,1.40
2023-01-11T12:00:08.259Z,1.30
2023-01-11T12:02:42.094Z,1.20
2023-01-11T12:05:10.965Z,1.27
2023-01-11T12:07:54.331Z,3.40
2023-01-11T12:10:27.699Z,3.10
2023-01-11T12:13:00.424Z,3.47
2023-01-11T12:15:32.591Z,2.33
2023-01-11T12:18:30.425Z,2.60
2023-01-11T12:21:08.230Z,4.43
2023-01-11T12:23:35.533Z,2.97
2023-01-11T12:26:22.799Z,2.50
2023-01-11T12:29:15.076Z,2.60
2023-01-11T12:32:22.869Z,1.50
2023-01-11T12:35:02.582Z,4.03
2023-01-11T12:37:57.166Z,3.10
2023-01-11T12:40:54.930Z,4.13
2023-01-11T12:43:46.641Z,2.20
2023-01-11T12:46:45.829Z,2.27
2023-01-11T12:49:51.441Z,2.00
2023-01-11T12:52:27.891Z,1.60
2023-01-11T12:55:03.338Z,1.80
2023-01-11T12:58:21.707Z,1.70
2023-01-11T13:01:12.954Z,1.70
2023-01-11T13:03:49.238Z,1.90
2023-01-11T13:06:16.445Z,1.57
2023-01-11T13:09:16.789Z,1.60
2023-01-11T13:12:14.321Z,1.57
2023-01-11T13:15:17.022Z,1.60
2023-01-11T13:17:56.028Z,1.40
2023-01-11T13:21:00.792Z,1.90
2023-01-11T13:23:41.934Z,1.97
2023-01-11T13:26:15.408Z,1.57
2023-01-11T13:28:46.386Z,1.40
2023-01-11T13:31:14.854Z,1.70
2023-01-11T13:33:50.366Z,2.00
2023-01-11T13:36:24.166Z,3.20
2023-01-11T13:39:14.022Z,2.10
2023-01-11T13:41:55.501Z,2.00
2023-01-11T13:44:30.768Z,1.90
2023-01-11T13:47:22.951Z,1.83
2023-01-11T13:50:18.392Z,1.83
2023-01-11T13:52:51.331Z,1.73
2023-01-11T13:55:43.736Z,1.90
2023-01-11T13:58:31.578Z,2.00
2023-01-11T14:01:14.744Z,1.77
2023-01-11T14:04:00.888Z,1.60
2023-01-11T14:06:55.342Z,1.77
2023-01-11T14:09:35.689Z,2.10
2023-01-11T14:12:37.517Z,1.60
2023-01-11T14:16:07.259Z,1.50
2023-01-11T14:18:55.086Z,1.30
2023-01-11T14:21:43.741Z,1.30
2023-01-11T14:24:12.412Z,1.40
2023-01-11T14:27:21.767Z,0.90
2023-01-11T14:30:08.074Z,0.70
2023-01-11T14:33:06.097Z,0.90
2023-01-11T14:35:36.272Z,0.67
2023-01-11T14:38:41.934Z,0.90
2023-01-11T14:41:26.333Z,0.80
2023-01-11T14:44:21.074Z,0.80
2023-01-11T14:47:07.063Z,0.90
2023-01-11T14:49:46.152Z,0.93
2023-01-11T14:52:38.555Z,0.77
2023-01-11T14:55:18.828Z,0.70
2023-01-11T14:57:55.092Z,1.00
2023-01-11T15:00:22.351Z,0.90
2023-01-11T15:03:12.572Z,0.97
2023-01-11T15:06:10.546Z,0.80
2023-01-11T15:09:03.155Z,0.80
2023-01-11T15:11:33.545Z,1.10
2023-01-11T15:14:15.529Z,1.10
2023-01-11T15:17:08.373Z,1.13
2023-01-11T15:19:38.499Z,0.80
2023-01-11T15:22:07.019Z,1.00
2023-01-11T15:24:42.829Z,1.10
2023-01-11T15:27:37.330Z,1.00
2023-01-11T15:30:08.019Z,1.13
2023-01-11T15:32:36.185Z,1.20
2023-01-11T15:35:32.672Z,1.00
2023-01-11T15:38:32.362Z,1.00
2023-01-11T15:41:20.123Z,1.33
2023-01-11T15:44:25.039Z,1.10
2023-01-11T15:47:10.195Z,1.30
2023-01-11T15:49:59.169Z,4.13
2023-01-11T15:53:06.058Z,1.30
2023-01-11T15:55:54.421Z,1.00
2023-01-11T15:58:40.144Z,1.30
2023-01-11T16:01:19.490Z,1.13
2023-01-11T16:04:00.358Z,1.40
2023-01-11T16:06:51.569Z,1.23
2023-01-11T16:09:29.217Z,1.17
2023-01-11T16:12:27.585Z,1.83
2023-01-11T16:15:12.815Z,1.30
2023-01-11T16:17:41.622Z,1.50
2023-01-11T16:20:22.540Z,1.73
2023-01-11T16:23:05.724Z,2.90
2023-01-11T16:25:41.074Z,1.40
2023-01-11T16:28:16.307Z,1.93
2023-01-11T16:30:44.067Z,2.43
2023-01-11T16:33:21.600Z,1.30
2023-01-11T16:35:49.129Z,1.30
2023-01-11T16:38:20.597Z,5.27
2023-01-11T16:40:51.138Z,6.87
2023-01-11T16:43:29.067Z,2.30
2023-01-11T16:45:56.446Z,2.00
2023-01-11T16:48:26.106Z,10.87
2023-01-11T16:51:08.377Z,5.40
2023-01-11T16:53:38.487Z,1.50
2023-01-11T16:56:18.459Z,1.33
2023-01-11T16:59:05.579Z,1.20
2023-01-11T17:02:05.133Z,2.03
2023-01-11T17:04:33.814Z,1.40
2023-01-11T17:07:20.204Z,1.43
2023-01-11T17:09:47.703Z,1.20
2023-01-11T17:12:24.847Z,1.10
2023-01-11T17:15:20.316Z,1.30
2023-01-11T17:17:47.633Z,5.30
2023-01-11T17:20:21.522Z,8.53
2023-01-11T17:22:53.553Z,9.07
2023-01-11T17:25:37.348Z,2.87
2023-01-11T17:28:19.701Z,3.10
2023-01-11T17:30:50.948Z,1.90
2023-01-11T17:33:33.139Z,3.17
2023-01-11T17:36:01.600Z,1.60
2023-01-11T17:38:30.008Z,1.27
2023-01-11T17:40:58.689Z,1.30
2023-01-11T17:43:48.274Z,1.50
2023-01-11T17:46:26.594Z,1.50
2023-01-11T17:48:55.885Z,3.67
2023-01-11T17:51:31.432Z,2.13
2023-01-11T17:53:58.822Z,4.40
2023-01-11T17:56:41.518Z,2.00
2023-01-11T17:59:11.808Z,1.60
2023-01-11T18:01:39.351Z,1.50
2023-01-11T18:04:19.128Z,1.57
2023-01-11T18:06:48.476Z,1.80
2023-01-11T18:09:29.347Z,3.40
2023-01-11T18:12:17.590Z,1.80
2023-01-11T18:14:50.325Z,2.10
2023-01-11T18:17:32.619Z,2.43
2023-01-11T18:20:01.138Z,3.53
2023-01-11T18:22:43.337Z,1.90
2023-01-11T18:25:19.602Z,5.80
2023-01-11T18:27:47.581Z,1.57
2023-01-11T18:30:33.237Z,1.80
2023-01-11T18:33:02.799Z,1.50
2023-01-11T18:35:30.728Z,1.50
2023-01-11T18:37:57.987Z,1.60
2023-01-11T18:40:25.226Z,1.20
2023-01-11T18:42:53.814Z,1.40
2023-01-11T18:45:21.848Z,1.50
2023-01-11T18:47:49.069Z,1.60
2023-01-11T18:50:18.788Z,1.40
2023-01-11T18:52:46.856Z,1.50
2023-01-11T18:55:14.485Z,2.57
2023-01-11T18:57:42.377Z,1.60
2023-01-11T19:00:14.004Z,1.50
2023-01-11T19:02:43.354Z,1.43
2023-01-11T19:05:12.867Z,1.27
2023-01-11T19:07:42.372Z,1.67
2023-01-11T19:10:14.345Z,1.40
2023-01-11T19:12:42.328Z,1.30
2023-01-11T19:15:10.734Z,1.20
2023-01-11T19:17:37.989Z,1.53
2023-01-11T19:20:06.762Z,1.40
2023-01-11T19:22:33.949Z,1.90
2023-01-11T19:25:01.473Z,1.77
2023-01-11T19:27:28.964Z,1.73
2023-01-11T19:29:58.522Z,1.60
2023-01-11T19:32:25.895Z,7.77
2023-01-11T19:34:57.828Z,1.80
2023-01-11T19:37:27.092Z,1.50
2023-01-11T19:39:54.363Z,6.37
2023-01-11T19:42:23.159Z,1.50
2023-01-11T19:44:51.316Z,2.10
2023-01-11T19:47:18.778Z,1.50
2023-01-11T19:49:46.136Z,2.60
2023-01-11T19:52:18.898Z,1.60
2023-01-11T19:54:48.185Z,1.67
2023-01-11T19:57:20.697Z,2.63
2023-01-11T19:59:48.970Z,1.80
2023-01-11T20:02:19.214Z,1.80
2023-01-11T20:04:46.655Z,3.07
2023-01-11T20:07:14.680Z,2.83
2023-01-11T20:09:42.047Z,6.30
2023-01-11T20:12:11.369Z,3.20
2023-01-11T20:14:40.352Z,7.23
2023-01-11T20:17:08.286Z,6.57
2023-01-11T20:19:35.722Z,10.40
2023-01-11T20:22:03.186Z,16.93
2023-01-11T20:24:30.905Z,7.60
2023-01-11T20:27:00.183Z,15.27
2023-01-11T20:29:27.754Z,4.63
2023-01-11T20:31:55.815Z,6.17
2023-01-11T20:34:24.029Z,8.30
2023-01-11T20:36:51.526Z,9.80
2023-01-11T20:39:18.790Z,11.30
2023-01-11T20:41:49.763Z,15.53
2023-01-11T20:44:28.071Z,6.03
2023-01-11T20:46:56.592Z,16.73
2023-01-11T20:49:29.248Z,3.90
2023-01-11T20:51:56.781Z,6.10
2023-01-11T20:54:24.114Z,4.80
2023-01-11T20:56:52.508Z,7.87
2023-01-11T20:59:19.948Z,9.63
2023-01-11T21:01:48.890Z,3.73
2023-01-11T21:04:17.729Z,3.40
2023-01-11T21:06:47.867Z,3.40
2023-01-11T21:09:17.889Z,2.33
2023-01-11T21:11:52.441Z,2.23
2023-01-11T21:14:23.279Z,2.10
2023-01-11T21:16:50.606Z,2.30
2023-01-11T21:19:17.935Z,2.23
2023-01-11T21:21:45.228Z,2.00
2023-01-11T21:24:14.636Z,2.00
2023-01-11T21:26:43.546Z,1.90
2023-01-11T21:29:11.804Z,2.37
2023-01-11T21:31:39.846Z,2.23
2023-01-11T21:34:08.138Z,2.07
2023-01-11T21:36:35.477Z,1.80
2023-01-11T21:39:03.347Z,2.10
2023-01-11T21:41:51.035Z,1.90
2023-01-11T21:44:20.046Z,1.90
2023-01-11T21:46:47.671Z,2.23
2023-01-11T21:49:15.421Z,2.23
2023-01-11T21:51:43.508Z,1.90
2023-01-11T21:54:13.898Z,2.07
2023-01-11T21:56:44.402Z,1.90
2023-01-11T21:59:12.315Z,1.60
2023-01-11T22:01:41.397Z,2.07
2023-01-11T22:04:11.317Z,2.00
2023-01-11T22:06:40.215Z,1.73
2023-01-11T22:09:11.896Z,1.80
2023-01-11T22:11:39.485Z,1.90
2023-01-11T22:14:08.461Z,1.90
2023-01-11T22:16:36.053Z,1.87
2023-01-11T22:19:06.106Z,1.90
2023-01-11T22:21:33.383Z,2.00
2023-01-11T22:24:00.582Z,2.53
2023-01-11T22:26:33.232Z,1.90
2023-01-11T22:29:12.575Z,2.00
2023-01-11T22:31:43.079Z,2.00
2023-01-11T22:34:11.362Z,2.00
2023-01-11T22:36:38.669Z,1.83
2023-01-11T22:39:06.131Z,1.93
2023-01-11T22:41:33.329Z,2.10
2023-01-11T22:44:00.641Z,2.37
2023-01-11T22:46:28.406Z,1.80
2023-01-11T22:48:55.677Z,2.20
2023-01-11T22:51:26.490Z,2.50
2023-01-11T22:53:54.806Z,2.13
2023-01-11T22:56:25.575Z,1.90
2023-01-11T22:58:57.016Z,1.70
2023-01-11T23:01:26.717Z,1.70
2023-01-11T23:03:55.161Z,1.90
2023-01-11T23:06:25.520Z,2.30
2023-01-11T23:08:53.848Z,1.50
2023-01-11T23:11:46.200Z,1.73
2023-01-11T23:14:19.191Z,1.70
2023-01-11T23:16:48.271Z,1.60
2023-01-11T23:19:17.944Z,1.67
2023-01-11T23:21:46.731Z,1.87
2023-01-11T23:24:15.694Z,1.50
2023-01-11T23:26:43.281Z,1.70
2023-01-11T23:29:10.739Z,1.80
2023-01-11T23:31:38.671Z,2.00
2023-01-11T23:34:08.967Z,1.60
2023-01-11T23:36:41.693Z,1.90
2023-01-11T23:39:14.353Z,1.63
2023-01-11T23:42:00.495Z,1.87
2023-01-11T23:44:27.739Z,2.00
2023-01-11T23:47:13.641Z,1.80
2023-01-11T23:49:43.485Z,1.93
2023-01-11T23:52:10.882Z,1.40
2023-01-11T23:54:38.153Z,1.57
2023-01-11T23:57:05.465Z,1.70
2023-01-11T23:59:33.103Z,1.40
